Time;durP1;ratioP1;P1;durP2;ratioP2;P2;SDS_P1;SDS_P2;PMS_P1;PMS_P2;Temp;Humidity;BMP_temperature;BMP_pressure;BME280_temperature;BME280_humidity;BME280_pressure;Samples;Min_cycle;Max_cycle;Signal;HPM_P1;HPM_P2
2022/09/09 00:01:10;;;;;;;7.67;6.87;;;;;;;19.39;61.03;97336.16;4911935;29;20202;-72
2022/09/09 00:03:40;;;;;;;8.73;7.20;;;;;;;19.39;61.48;97330.91;4912186;29;20216;-72
2022/09/09 00:06:25;;;;;;;12.03;6.90;;;;;;;19.23;61.08;97332.16;4912242;29;20685;-73
2022/09/09 00:09:05;;;;;;;7.77;7.03;;;;;;;18.78;61.99;97323.31;4911543;29;20189;-73
2022/09/09 00:11:39;;;;;;;7.90;7.07;;;;;;;18.58;63.19;97323.94;4912026;29;20704;-73
2022/09/09 00:14:17;;;;;;;8.20;6.80;;;;;;;18.61;63.16;97310.59;4911855;29;20193;-74
2022/09/09 00:16:53;;;;;;;7.33;6.63;;;;;;;18.74;62.69;97329.72;4911782;29;20689;-74
2022/09/09 00:19:26;;;;;;;9.37;6.73;;;;;;;18.84;62.23;97332.50;4911846;29;20190;-74
2022/09/09 00:22:14;;;;;;;9.63;6.60;;;;;;;18.86;61.58;97343.72;4911294;29;20192;-73
2022/09/09 00:24:45;;;;;;;10.43;6.07;;;;;;;18.80;62.06;97352.91;4912124;29;20281;-73
2022/09/09 00:27:29;;;;;;;8.23;6.93;;;;;;;18.88;61.17;97336.56;4911759;29;20220;-76
2022/09/09 00:30:22;;;;;;;6.50;5.30;;;;;;;18.86;60.96;97326.19;4910252;29;20233;-72
2022/09/09 00:33:00;;;;;;;8.33;5.47;;;;;;;18.91;60.81;97320.59;4910698;29;20221;-75
2022/09/09 00:35:37;;;;;;;6.40;5.40;;;;;;;19.04;60.36;97337.94;4894319;29;20196;-73
2022/09/09 00:38:14;;;;;;;9.73;5.50;;;;;;;18.79;61.09;97346.00;4911436;29;20236;-75
2022/09/09 00:40:59;;;;;;;7.77;5.20;;;;;;;18.77;61.37;97352.28;4910124;29;20276;-72
2022/09/09 00:43:32;;;;;;;7.27;5.90;;;;;;;18.62;61.28;97349.00;4911010;29;20690;-72
2022/09/09 00:46:07;;;;;;;8.57;5.37;;;;;;;18.59;61.10;97349.22;4910323;29;20279;-72
2022/09/09 00:48:52;;;;;;;7.17;5.60;;;;;;;18.29;62.30;97356.63;4909748;29;20358;-72
2022/09/09 00:51:23;;;;;;;6.80;6.10;;;;;;;17.80;64.23;97352.22;4910980;29;20224;-72
2022/09/09 00:54:27;;;;;;;7.30;5.97;;;;;;;17.43;65.65;97354.84;4911174;29;20203;-72
2022/09/09 00:57:31;;;;;;;7.90;6.90;;;;;;;17.03;67.83;97343.59;4910892;29;20200;-72
2022/09/09 01:00:23;;;;;;;8.80;7.47;;;;;;;16.97;68.56;97331.75;4909781;29;20187;-71
2022/09/09 01:03:26;;;;;;;8.00;7.30;;;;;;;17.00;69.20;97341.19;4909967;29;20211;-77
2022/09/09 01:06:05;;;;;;;8.83;8.00;;;;;;;16.87;70.01;97337.69;4911020;29;20302;-77
2022/09/09 01:08:53;;;;;;;10.50;7.50;;;;;;;16.91;69.94;97329.56;4893910;29;20303;-76
2022/09/09 01:11:47;;;;;;;8.93;7.83;;;;;;;16.73;70.48;97332.53;4909768;29;20273;-73
2022/09/09 01:14:38;;;;;;;8.60;7.80;;;;;;;16.68;70.69;97330.22;4895158;29;20215;-73
2022/09/09 01:17:09;;;;;;;9.30;7.97;;;;;;;16.61;70.77;97321.09;4909458;29;20581;-73
2022/09/09 01:19:44;;;;;;;9.17;8.10;;;;;;;16.70;70.49;97324.88;4909652;29;20191;-75
2022/09/09 01:22:39;;;;;;;7.80;7.00;;;;;;;16.74;70.33;97323.75;4894086;29;20606;-76
2022/09/09 01:25:51;;;;;;;8.67;7.77;;;;;;;16.81;70.09;97325.03;4909580;29;20241;-76
2022/09/09 01:28:26;;;;;;;8.93;7.80;;;;;;;16.85;69.58;97316.88;4901226;29;20232;-72
2022/09/09 01:30:58;;;;;;;8.70;7.90;;;;;;;16.99;69.19;97313.34;4909048;29;20193;-74
2022/09/09 01:33:32;;;;;;;9.17;7.27;;;;;;;16.95;68.66;97291.78;4909342;29;20186;-72
2022/09/09 01:36:29;;;;;;;9.00;7.83;;;;;;;17.21;68.54;97300.47;4909297;29;20192;-71
2022/09/09 01:38:57;;;;;;;7.47;6.57;;;;;;;17.57;67.72;97303.22;4909187;29;20246;-72
2022/09/09 01:41:24;;;;;;;9.83;7.10;;;;;;;17.85;66.18;97305.59;4909385;29;20730;-71
2022/09/09 01:44:12;;;;;;;9.37;6.80;;;;;;;17.96;65.50;97309.22;4908744;29;20703;-73
2022/09/09 01:46:42;;;;;;;8.97;7.40;;;;;;;18.15;64.98;97302.59;4908989;29;20585;-71
2022/09/09 01:49:17;;;;;;;7.33;6.50;;;;;;;18.22;64.12;97305.56;4910318;29;20290;-72
2022/09/09 01:51:49;;;;;;;8.33;6.80;;;;;;;18.33;63.96;97303.03;4908978;29;20224;-71
2022/09/09 01:54:17;;;;;;;8.27;6.33;;;;;;;18.38;63.44;97303.53;4909598;29;20215;-72
2022/09/09 01:56:51;;;;;;;7.40;6.20;;;;;;;18.33;63.56;97300.41;4909222;29;20192;-72
2022/09/09 01:59:28;;;;;;;7.33;6.27;;;;;;;18.38;63.32;97304.34;4909197;29;20345;-72
2022/09/09 02:02:00;;;;;;;7.33;6.10;;;;;;;18.32;63.13;97298.75;4908897;29;20298;-73
2022/09/09 02:04:37;;;;;;;9.77;6.50;;;;;;;17.83;64.63;97291.75;4908680;29;20664;-72
2022/09/09 02:07:35;;;;;;;8.07;7.37;;;;;;;17.23;66.42;97292.53;4908983;29;20681;-74
2022/09/09 02:10:30;;;;;;;7.60;6.90;;;;;;;16.95;67.55;97293.53;4904837;29;20203;-73
2022/09/09 02:13:21;;;;;;;7.40;5.97;;;;;;;16.99;67.48;97302.88;4908618;29;20227;-75
2022/09/09 02:16:12;;;;;;;6.40;5.80;;;;;;;17.04;66.98;97298.19;4909053;29;20186;-77
2022/09/09 02:18:49;;;;;;;6.90;6.20;;;;;;;17.08;66.42;97294.41;4908570;29;21024;-72
2022/09/09 02:21:22;;;;;;;10.00;6.70;;;;;;;16.76;67.29;97293.09;4893575;29;20194;-72
2022/09/09 02:23:52;;;;;;;8.90;7.27;;;;;;;16.34;68.56;97277.56;4908700;29;20585;-74
2022/09/09 02:26:23;;;;;;;9.90;7.20;;;;;;;16.30;69.13;97293.44;4908763;29;20195;-75
2022/09/09 02:29:01;;;;;;;6.47;5.87;;;;;;;16.62;68.74;97286.16;4909229;29;20283;-75
2022/09/09 02:31:28;;;;;;;8.37;6.53;;;;;;;16.86;67.46;97281.91;4908188;29;20686;-75
2022/09/09 02:34:03;;;;;;;6.67;6.00;;;;;;;16.93;66.99;97292.81;4909114;29;20637;-77
2022/09/09 02:36:33;;;;;;;10.23;7.63;;;;;;;16.60;68.39;97289.81;4908562;29;20227;-75
2022/09/09 02:39:01;;;;;;;10.03;6.87;;;;;;;16.49;69.05;97302.69;4908543;29;20192;-76
2022/09/09 02:41:41;;;;;;;7.37;6.50;;;;;;;16.23;69.94;97292.19;4910135;29;20199;-72
2022/09/09 02:44:13;;;;;;;8.07;6.87;;;;;;;15.83;71.65;97285.19;4908396;29;20194;-76
2022/09/09 02:47:02;;;;;;;8.23;7.37;;;;;;;15.59;73.00;97284.09;4908848;29;20252;-76
2022/09/09 02:49:51;;;;;;;8.77;7.47;;;;;;;15.70;73.32;97301.72;4908421;29;20558;-75
2022/09/09 02:52:43;;;;;;;10.30;8.13;;;;;;;15.91;72.53;97306.44;4908398;29;21050;-75
2022/09/09 02:55:32;;;;;;;8.80;8.00;;;;;;;16.38;70.87;97307.81;4890129;29;20191;-76
2022/09/09 02:58:01;;;;;;;8.43;6.57;;;;;;;16.73;69.82;97291.50;4892076;29;20202;-73
2022/09/09 03:00:29;;;;;;;9.77;6.40;;;;;;;16.67;69.55;97294.53;4893196;29;20298;-73
2022/09/09 03:03:00;;;;;;;8.17;7.43;;;;;;;16.26;70.83;97297.19;4893362;29;20192;-76
2022/09/09 03:05:27;;;;;;;9.00;7.27;;;;;;;16.12;71.48;97294.63;4877498;29;20192;-76
2022/09/09 03:07:55;;;;;;;11.63;7.37;;;;;;;15.99;72.09;97304.16;4893251;29;20652;-71
2022/09/09 03:10:22;;;;;;;8.57;7.73;;;;;;;16.00;71.88;97303.25;4892727;29;20314;-72
2022/09/09 03:12:50;;;;;;;8.73;7.67;;;;;;;16.00;71.67;97302.41;4909795;29;20427;-72
2022/09/09 03:15:17;;;;;;;9.63;7.77;;;;;;;16.00;72.44;97316.31;4895768;29;20194;-70
2022/09/09 03:17:44;;;;;;;8.83;7.90;;;;;;;15.92;72.83;97302.03;4911494;29;20217;-70
2022/09/09 03:20:12;;;;;;;10.00;8.23;;;;;;;15.86;72.94;97294.59;4896143;29;20195;-72
2022/09/09 03:22:39;;;;;;;9.10;8.30;;;;;;;16.00;72.70;97290.19;4911133;29;20691;-72
2022/09/09 03:25:06;;;;;;;8.63;7.83;;;;;;;15.95;72.89;97300.06;4911666;29;20211;-70
2022/09/09 03:27:36;;;;;;;9.80;8.10;;;;;;;15.99;72.64;97311.19;4895860;29;20190;-74
2022/09/09 03:30:05;;;;;;;9.80;7.90;;;;;;;16.01;72.95;97302.28;4910371;29;20240;-74
2022/09/09 03:32:31;;;;;;;10.50;8.37;;;;;;;15.89;72.94;97307.47;4910057;29;20681;-71
2022/09/09 03:34:58;;;;;;;10.30;8.10;;;;;;;15.85;74.15;97305.97;4911321;29;20202;-70
2022/09/09 03:37:26;;;;;;;8.73;7.60;;;;;;;15.79;73.60;97312.41;4910209;29;20190;-74
2022/09/09 03:39:54;;;;;;;8.77;7.43;;;;;;;15.76;73.70;97312.63;4893970;29;20285;-73
2022/09/09 03:42:22;;;;;;;10.03;7.60;;;;;;;15.83;73.71;97311.28;4910198;29;20202;-73
2022/09/09 03:44:52;;;;;;;8.10;7.27;;;;;;;15.86;73.40;97305.03;4910152;29;20196;-72
2022/09/09 03:47:23;;;;;;;8.13;6.83;;;;;;;15.79;73.20;97301.97;4909870;29;20214;-73
2022/09/09 03:49:54;;;;;;;8.13;7.33;;;;;;;15.92;72.82;97308.13;4909909;29;20192;-73
2022/09/09 03:52:24;;;;;;;8.13;7.33;;;;;;;16.12;72.07;97312.91;4894178;29;20710;-72
2022/09/09 03:54:53;;;;;;;8.63;6.37;;;;;;;16.32;71.28;97319.50;4910152;29;20626;-72
2022/09/09 03:57:21;;;;;;;9.00;6.87;;;;;;;16.37;70.82;97325.25;4909716;29;20190;-74
2022/09/09 03:59:49;;;;;;;9.97;6.77;;;;;;;16.48;70.34;97337.66;4909445;29;20226;-73
2022/09/09 04:02:17;;;;;;;8.73;7.30;;;;;;;16.52;70.00;97345.22;4910911;29;20214;-73
2022/09/09 04:04:44;;;;;;;8.27;6.43;;;;;;;16.56;70.29;97338.03;4909085;29;20218;-73
2022/09/09 04:07:11;;;;;;;9.23;7.07;;;;;;;16.54;69.68;97337.28;4909435;29;20206;-74
2022/09/09 04:09:39;;;;;;;8.73;6.93;;;;;;;16.63;69.22;97342.75;4906973;29;20204;-73
2022/09/09 04:12:06;;;;;;;9.50;7.70;;;;;;;16.39;69.39;97343.44;4890848;29;20311;-74
2022/09/09 04:14:34;;;;;;;12.20;7.77;;;;;;;16.17;70.27;97342.22;4890420;29;20199;-73
2022/09/09 04:17:06;;;;;;;8.03;7.23;;;;;;;16.02;71.06;97343.19;4890765;29;20196;-76
2022/09/09 04:19:33;;;;;;;8.87;6.50;;;;;;;15.73;71.53;97336.31;4890578;29;20226;-74
2022/09/09 04:22:01;;;;;;;9.40;7.70;;;;;;;15.71;72.00;97332.94;4890527;29;20215;-74
2022/09/09 04:24:28;;;;;;;14.67;7.80;;;;;;;15.40;73.81;97333.09;4891904;29;20190;-75
2022/09/09 04:26:58;;;;;;;15.67;8.73;;;;;;;15.29;74.08;97318.06;4890633;29;20275;-74
2022/09/09 04:29:25;;;;;;;10.33;7.93;;;;;;;15.50;74.03;97331.63;4854294;29;1187158;-73
2022/09/09 04:31:53;;;;;;;10.13;8.90;;;;;;;15.48;73.93;97321.28;4911080;29;20218;-75
2022/09/09 04:34:20;;;;;;;9.30;8.33;;;;;;;15.50;74.54;97321.19;4879091;29;20195;-74
2022/09/09 04:36:48;;;;;;;9.63;8.03;;;;;;;15.64;73.92;97317.75;4878470;29;20226;-76
2022/09/09 04:39:15;;;;;;;13.97;9.30;;;;;;;15.82;73.39;97320.06;4894216;29;20187;-75
2022/09/09 04:41:42;;;;;;;10.27;7.77;;;;;;;16.08;72.36;97327.13;4911299;29;20231;-76
2022/09/09 04:44:10;;;;;;;12.23;7.90;;;;;;;16.63;70.51;97315.78;4894084;29;20183;-74
2022/09/09 04:46:37;;;;;;;11.33;7.70;;;;;;;17.12;68.73;97319.44;4911371;29;20200;-74
2022/09/09 04:49:05;;;;;;;7.67;6.93;;;;;;;17.56;67.54;97324.25;4893860;29;20204;-75
2022/09/09 04:51:33;;;;;;;11.07;8.03;;;;;;;17.93;66.81;97323.38;4894034;29;20188;-76
2022/09/09 04:54:01;;;;;;;12.13;9.13;;;;;;;18.18;65.67;97314.59;4893729;29;20223;-75
2022/09/09 04:56:28;;;;;;;12.33;8.07;;;;;;;18.44;64.74;97317.06;4910897;29;20259;-74
2022/09/09 04:58:57;;;;;;;10.90;7.60;;;;;;;18.60;63.52;97316.78;4878306;29;20296;-75
2022/09/09 05:01:36;;;;;;;13.20;8.90;;;;;;;18.69;63.21;97308.25;4893461;29;20619;-73
2022/09/09 05:04:04;;;;;;;8.83;7.00;;;;;;;18.89;62.92;97312.00;4877744;29;20200;-75
2022/09/09 05:06:33;;;;;;;7.70;6.90;;;;;;;18.99;62.38;97320.88;4893358;29;20192;-74
2022/09/09 05:09:01;;;;;;;8.37;7.17;;;;;;;19.00;62.65;97310.25;4893704;29;20594;-77
2022/09/09 05:11:32;;;;;;;10.37;8.03;;;;;;;19.16;61.99;97321.28;4893401;29;20199;-73
2022/09/09 05:14:08;;;;;;;11.03;8.00;;;;;;;19.38;61.56;97313.47;4893372;29;20194;-74
2022/09/09 05:16:35;;;;;;;18.20;9.23;;;;;;;19.41;60.84;97322.94;4877901;29;20211;-73
2022/09/09 05:19:03;;;;;;;10.07;7.70;;;;;;;19.55;60.96;97311.34;4892847;29;20678;-76
2022/09/09 05:21:46;;;;;;;11.47;7.77;;;;;;;19.49;60.91;97320.53;4893168;29;20214;-73
2022/09/09 05:24:17;;;;;;;8.67;7.60;;;;;;;19.42;61.12;97324.59;4893407;29;20277;-75
2022/09/09 05:26:45;;;;;;;13.93;8.70;;;;;;;19.42;61.10;97314.06;4910529;29;20220;-74
2022/09/09 05:29:12;;;;;;;10.23;7.30;;;;;;;19.48;61.62;97314.44;4893539;29;20268;-74
2022/09/09 05:31:41;;;;;;;10.80;7.60;;;;;;;19.57;60.94;97314.69;4892983;29;20199;-75
2022/09/09 05:34:11;;;;;;;10.50;7.90;;;;;;;19.70;60.97;97307.53;4877882;29;20234;-73
2022/09/09 05:36:39;;;;;;;9.30;7.53;;;;;;;19.66;60.33;97296.41;4893115;29;20284;-73
2022/09/09 05:39:06;;;;;;;12.90;8.63;;;;;;;19.54;60.69;97309.69;4877687;29;20210;-73
2022/09/09 05:41:35;;;;;;;11.87;8.33;;;;;;;19.40;61.40;97302.84;4877837;29;20308;-74
2022/09/09 05:44:03;;;;;;;12.23;8.43;;;;;;;19.77;60.94;97308.72;4893072;29;20222;-73
2022/09/09 05:46:34;;;;;;;9.13;7.20;;;;;;;19.93;60.35;97298.66;4893710;29;20195;-74
2022/09/09 05:49:02;;;;;;;9.07;7.47;;;;;;;20.23;59.94;97297.13;4877468;29;20229;-74
2022/09/09 05:51:32;;;;;;;9.43;7.37;;;;;;;20.49;59.13;97302.06;4893449;29;20679;-73
2022/09/09 05:54:04;;;;;;;11.00;7.90;;;;;;;20.65;58.17;97292.78;4893116;29;20238;-75
2022/09/09 05:56:34;;;;;;;8.43;7.50;;;;;;;20.98;57.81;97297.06;4893447;29;20688;-74
2022/09/09 05:59:02;;;;;;;9.70;7.03;;;;;;;21.04;56.92;97299.25;4893313;29;20519;-74
2022/09/09 06:01:32;;;;;;;13.00;7.67;;;;;;;20.90;57.08;97308.22;4877435;29;20225;-73
2022/09/09 06:04:01;;;;;;;11.87;7.17;;;;;;;21.09;56.97;97304.94;4893755;29;20238;-75
2022/09/09 06:06:36;;;;;;;17.80;9.50;;;;;;;21.29;56.41;97298.00;4878099;29;20597;-72
2022/09/09 06:09:09;;;;;;;10.87;7.10;;;;;;;21.51;55.51;97298.69;4893943;29;20258;-73
2022/09/09 06:11:39;;;;;;;10.10;7.13;;;;;;;21.63;55.05;97302.06;4877393;29;20667;-74
2022/09/09 06:14:07;;;;;;;11.40;7.17;;;;;;;21.57;54.87;97292.91;4893387;29;20703;-73
2022/09/09 06:16:37;;;;;;;10.27;7.20;;;;;;;21.84;54.03;97305.53;4893757;29;20194;-74
2022/09/09 06:19:12;;;;;;;14.00;8.10;;;;;;;21.93;53.77;97312.63;4909359;29;20201;-73
2022/09/09 06:21:42;;;;;;;17.17;8.90;;;;;;;22.00;53.72;97305.88;4909598;29;20559;-74
2022/09/09 06:24:13;;;;;;;18.67;8.50;;;;;;;22.03;54.42;97302.13;4892160;29;20191;-73
2022/09/09 06:26:41;;;;;;;16.67;7.43;;;;;;;22.05;54.03;97303.66;4892615;29;20200;-74
2022/09/09 06:29:11;;;;;;;12.70;6.63;;;;;;;22.07;54.01;97303.53;4892340;29;20231;-76
2022/09/09 06:31:41;;;;;;;14.50;5.93;;;;;;;22.22;53.33;97305.66;4894646;29;20193;-77
2022/09/09 06:34:15;;;;;;;7.90;6.17;;;;;;;22.07;53.15;97298.25;4897090;29;20305;-76
2022/09/09 06:36:46;;;;;;;10.00;6.77;;;;;;;22.27;53.38;97311.38;4913000;29;20196;-74
2022/09/09 06:39:15;;;;;;;9.57;6.97;;;;;;;22.38;53.19;97321.78;4880673;29;20246;-74
2022/09/09 06:41:43;;;;;;;6.50;5.27;;;;;;;22.57;51.87;97321.84;4895798;29;20211;-75
2022/09/09 06:44:33;;;;;;;6.73;5.30;;;;;;;22.60;51.81;97313.69;4912973;29;20192;-78
2022/09/09 06:47:03;;;;;;;12.07;7.03;;;;;;;22.81;51.71;97312.72;4880766;29;20964;-75
2022/09/09 06:49:34;;;;;;;7.60;6.43;;;;;;;22.41;51.53;97307.50;4895331;29;20715;-76
2022/09/09 06:52:06;;;;;;;7.27;4.10;;;;;;;22.23;52.62;97307.34;4895641;29;20205;-74
2022/09/09 06:54:37;;;;;;;9.67;4.47;;;;;;;21.70;53.24;97296.13;4895563;29;20269;-73
2022/09/09 06:57:07;;;;;;;7.83;4.90;;;;;;;22.02;52.68;97303.94;4880049;29;20212;-73
2022/09/09 06:59:56;;;;;;;6.80;4.67;;;;;;;21.92;52.59;97291.69;4912778;29;20192;-74
2022/09/09 07:02:24;;;;;;;7.73;5.20;;;;;;;22.26;52.04;97295.66;4912305;29;20199;-74
2022/09/09 07:04:52;;;;;;;13.33;4.87;;;;;;;22.55;50.85;97297.38;4880180;29;20194;-74
2022/09/09 07:07:20;;;;;;;17.67;11.43;;;;;;;22.79;49.55;97298.81;4911822;29;20204;-72
2022/09/09 07:09:49;;;;;;;8.77;5.40;;;;;;;22.44;50.97;97284.28;4894900;29;20207;-76
2022/09/09 07:12:18;;;;;;;8.80;4.43;;;;;;;22.79;50.71;97293.53;4894812;29;20673;-75
2022/09/09 07:14:55;;;;;;;8.57;6.13;;;;;;;23.09;50.88;97296.84;4880723;29;20287;-76
2022/09/09 07:17:24;;;;;;;8.43;5.23;;;;;;;23.48;49.80;97302.94;4879646;29;20288;-78
2022/09/09 07:19:52;;;;;;;8.23;4.67;;;;;;;23.49;49.03;97298.47;4894678;29;20193;-74
2022/09/09 07:22:20;;;;;;;4.93;3.17;;;;;;;23.49;48.88;97304.59;4894702;29;20202;-73
2022/09/09 07:24:48;;;;;;;6.73;3.90;;;;;;;23.54;49.29;97312.94;4894938;29;20615;-76
2022/09/09 07:27:17;;;;;;;4.37;3.50;;;;;;;23.71;48.30;97308.69;4895057;29;20692;-75
2022/09/09 07:29:48;;;;;;;5.47;3.50;;;;;;;23.81;48.99;97323.56;4894836;29;20240;-75
2022/09/09 07:32:15;;;;;;;4.67;4.07;;;;;;;23.86;48.81;97318.69;4911810;29;20678;-75
2022/09/09 07:34:42;;;;;;;9.17;3.97;;;;;;;24.15;48.27;97329.19;4895145;29;20307;-76
2022/09/09 07:37:11;;;;;;;8.47;4.37;;;;;;;24.07;47.92;97313.19;4894630;29;20228;-75
2022/09/09 07:39:41;;;;;;;6.67;3.60;;;;;;;23.91;48.13;97321.72;4894657;29;20669;-75
2022/09/09 07:42:11;;;;;;;7.73;4.20;;;;;;;23.34;49.55;97324.53;4878818;29;20200;-74
2022/09/09 07:44:39;;;;;;;8.80;4.60;;;;;;;23.40;49.20;97329.25;4878160;29;20211;-75
2022/09/09 07:47:14;;;;;;;7.20;4.67;;;;;;;23.40;49.83;97331.88;4894645;29;20275;-74
2022/09/09 07:49:46;;;;;;;6.70;3.50;;;;;;;23.43;49.75;97328.97;4894252;29;20639;-74
2022/09/09 07:52:16;;;;;;;6.67;3.50;;;;;;;23.53;49.50;97329.78;4894398;29;20653;-78
2022/09/09 07:54:50;;;;;;;9.23;4.00;;;;;;;23.87;48.77;97327.44;4911105;29;20198;-74
2022/09/09 07:57:17;;;;;;;6.73;3.83;;;;;;;23.52;48.87;97330.75;4894080;29;20244;-74
2022/09/09 07:59:46;;;;;;;4.87;3.30;;;;;;;23.63;48.87;97327.09;4894514;29;20187;-74
2022/09/09 08:02:14;;;;;;;5.07;3.37;;;;;;;23.64;48.54;97319.00;4911102;29;20204;-77
2022/09/09 08:04:43;;;;;;;5.97;2.77;;;;;;;23.52;48.42;97330.75;4878874;29;20220;-74
2022/09/09 08:07:11;;;;;;;4.00;3.17;;;;;;;23.88;47.16;97315.88;4878858;29;20204;-75
2022/09/09 08:09:46;;;;;;;5.00;3.37;;;;;;;24.15;46.61;97314.09;4911537;29;20277;-74
2022/09/09 08:12:21;;;;;;;11.83;4.83;;;;;;;24.25;47.08;97324.66;4878557;29;20200;-75
2022/09/09 08:14:48;;;;;;;6.90;4.73;;;;;;;24.29;46.47;97312.78;4911509;29;20314;-75
2022/09/09 08:17:15;;;;;;;7.13;4.67;;;;;;;24.44;46.35;97302.53;4911767;29;20219;-75
2022/09/09 08:19:44;;;;;;;5.37;3.50;;;;;;;23.81;48.14;97305.03;4894408;29;20538;-75
2022/09/09 08:22:16;;;;;;;5.27;3.90;;;;;;;24.04;46.76;97301.09;4894943;29;20195;-74
2022/09/09 08:24:44;;;;;;;4.67;3.60;;;;;;;23.68;48.69;97295.78;4911620;29;20288;-74
2022/09/09 08:27:12;;;;;;;5.20;3.53;;;;;;;23.46;48.51;97278.44;4878164;29;20276;-75
2022/09/09 08:29:40;;;;;;;4.40;2.90;;;;;;;23.54;48.14;97260.03;4893681;29;20235;-75
2022/09/09 08:32:07;;;;;;;5.27;3.73;;;;;;;24.14;47.52;97275.41;4893380;29;20204;-75
2022/09/09 08:34:36;;;;;;;6.10;3.50;;;;;;;24.02;48.38;97279.19;4893605;29;20234;-74
2022/09/09 08:37:14;;;;;;;8.53;5.13;;;;;;;24.04;48.79;97271.97;4893580;29;20266;-76
2022/09/09 08:39:43;;;;;;;9.93;4.60;;;;;;;23.80;49.26;97276.91;4878292;29;20212;-75
2022/09/09 08:42:31;;;;;;;8.83;6.10;;;;;;;23.81;49.91;97273.31;4893317;29;20302;-75
2022/09/09 08:45:02;;;;;;;10.13;7.93;;;;;;;24.11;49.49;97265.09;4893677;29;20874;-75
2022/09/09 08:48:35;;;;;;;7.53;5.57;;;;;;;24.57;48.56;97265.91;4910875;29;20610;-73
2022/09/09 08:51:07;;;;;;;6.63;4.83;;;;;;;24.86;47.15;97266.53;4820542;29;20201;-76
2022/09/09 08:53:51;;;;;;;4.00;3.13;;;;;;;24.77;47.52;97256.88;4892808;29;20671;-76
2022/09/09 08:56:25;;;;;;;4.90;3.70;;;;;;;24.95;47.06;97270.94;4910121;29;20193;-75
2022/09/09 08:58:57;;;;;;;5.60;3.87;;;;;;;24.22;48.69;97262.25;4893252;29;20189;-76
2022/09/09 09:01:41;;;;;;;10.37;7.33;;;;;;;24.38;48.90;97266.06;4863391;29;20623;-76
2022/09/09 09:04:27;;;;;;;8.73;4.47;;;;;;;24.91;48.20;97269.59;4877925;29;20221;-76
2022/09/09 09:07:17;;;;;;;5.60;4.33;;;;;;;24.83;47.07;97264.22;4892641;29;20295;-75
2022/09/09 09:10:09;;;;;;;4.67;3.40;;;;;;;24.76;47.83;97255.19;4877768;29;20198;-76
2022/09/09 09:13:01;;;;;;;6.60;3.60;;;;;;;24.68;48.28;97260.38;4892553;29;20190;-75
2022/09/09 09:15:37;;;;;;;8.10;4.17;;;;;;;24.73;48.41;97261.63;4877749;29;20298;-75
2022/09/09 09:18:12;;;;;;;6.57;4.07;;;;;;;25.14;46.90;97260.16;4910135;29;20296;-76
2022/09/09 09:20:58;;;;;;;8.80;4.23;;;;;;;25.16;46.78;97231.69;4892421;29;20213;-75
2022/09/09 09:23:36;;;;;;;6.70;3.87;;;;;;;25.53;46.48;97248.16;4877050;29;20237;-75
2022/09/09 09:26:08;;;;;;;4.57;3.70;;;;;;;25.08;47.09;97247.50;4892663;29;20190;-75
2022/09/09 09:28:36;;;;;;;8.37;4.70;;;;;;;25.31;47.10;97235.41;4892753;29;20204;-77
2022/09/09 09:31:13;;;;;;;4.80;3.43;;;;;;;24.68;47.84;97242.69;4910006;29;20670;-75
2022/09/09 09:33:52;;;;;;;7.53;4.23;;;;;;;25.22;46.97;97236.34;4892162;29;20230;-76
2022/09/09 09:36:34;;;;;;;8.33;4.43;;;;;;;25.57;46.57;97236.25;4877133;29;20288;-77
2022/09/09 09:39:05;;;;;;;5.67;4.00;;;;;;;25.74;45.87;97238.00;4877130;29;20590;-76
2022/09/09 09:41:54;;;;;;;6.17;3.27;;;;;;;25.61;46.51;97236.78;4891930;29;20197;-75
2022/09/09 09:44:30;;;;;;;9.03;6.47;;;;;;;25.77;46.37;97236.84;4892709;29;20698;-77
2022/09/09 09:47:08;;;;;;;4.43;3.97;;;;;;;26.07;46.33;97232.81;4892714;29;20809;-75
2022/09/09 09:49:36;;;;;;;6.37;3.43;;;;;;;26.05;45.64;97235.63;4892420;29;20203;-75
2022/09/09 09:52:06;;;;;;;7.30;4.00;;;;;;;26.19;46.22;97231.56;4861635;29;20633;-75
2022/09/09 09:54:38;;;;;;;5.73;3.43;;;;;;;26.26;45.06;97236.06;4876770;29;20262;-77
2022/09/09 09:57:11;;;;;;;6.70;3.80;;;;;;;26.45;44.99;97227.78;4892632;29;20197;-77
2022/09/09 09:59:42;;;;;;;7.13;3.80;;;;;;;26.07;45.78;97223.03;4892356;29;20287;-76
2022/09/09 10:02:25;;;;;;;5.67;3.67;;;;;;;25.67;46.76;97215.75;4877056;29;20229;-75
2022/09/09 10:05:16;;;;;;;5.00;3.20;;;;;;;25.95;45.46;97228.78;4892991;29;20293;-79
2022/09/09 10:08:09;;;;;;;6.33;3.70;;;;;;;25.81;45.80;97211.66;4896296;29;20198;-76
2022/09/09 10:11:10;;;;;;;5.43;3.83;;;;;;;25.88;45.57;97223.31;4896330;29;20269;-74
2022/09/09 10:14:17;;;;;;;5.93;3.20;;;;;;;26.38;44.53;97217.97;4896502;29;20252;-74
2022/09/09 10:16:54;;;;;;;6.03;3.33;;;;;;;26.55;44.77;97223.16;4881143;29;20198;-75
2022/09/09 10:19:32;;;;;;;6.43;2.83;;;;;;;26.39;45.12;97217.81;4913997;29;20193;-74
2022/09/09 10:22:11;;;;;;;5.57;3.83;;;;;;;26.09;46.46;97220.25;4913432;29;20202;-77
2022/09/09 10:25:00;;;;;;;6.13;4.23;;;;;;;25.90;46.71;97207.22;4913534;29;20268;-76
2022/09/09 10:27:58;;;;;;;3.50;3.20;;;;;;;26.05;46.21;97210.91;4896855;29;20235;-74
2022/09/09 10:30:49;;;;;;;5.63;3.70;;;;;;;26.24;46.67;97208.00;4872589;29;20238;-74
2022/09/09 10:33:39;;;;;;;8.93;4.27;;;;;;;26.05;46.84;97214.38;4913565;29;20295;-75
2022/09/09 10:36:19;;;;;;;7.13;3.50;;;;;;;26.34;46.25;97195.38;4913258;29;20195;-74
2022/09/09 10:38:52;;;;;;;4.87;3.20;;;;;;;26.33;47.09;97201.72;4895568;29;20604;-75
2022/09/09 10:41:45;;;;;;;6.70;3.37;;;;;;;26.17;46.93;97194.53;4913251;29;20966;-76
2022/09/09 10:44:21;;;;;;;6.17;4.30;;;;;;;26.33;46.32;97186.63;4896181;29;20209;-77
2022/09/09 10:46:56;;;;;;;5.57;3.40;;;;;;;26.41;46.27;97194.59;4895739;29;20192;-76
2022/09/09 10:49:49;;;;;;;7.20;3.77;;;;;;;26.63;45.81;97195.75;4912739;29;20194;-76
2022/09/09 10:52:26;;;;;;;4.93;4.07;;;;;;;26.94;44.98;97186.13;4896087;29;20715;-75
2022/09/09 10:55:12;;;;;;;5.23;3.80;;;;;;;26.70;45.58;97179.97;4913025;29;20221;-76
2022/09/09 10:57:44;;;;;;;7.57;3.63;;;;;;;26.79;45.58;97187.81;4912556;29;20194;-75
2022/09/09 11:00:24;;;;;;;4.50;3.13;;;;;;;26.48;45.99;97178.81;4895785;29;20200;-76
2022/09/09 11:03:04;;;;;;;5.00;3.60;;;;;;;26.68;46.42;97182.81;4895390;29;20207;-76
2022/09/09 11:05:45;;;;;;;10.07;3.97;;;;;;;26.83;45.54;97189.13;4913025;29;20186;-76
2022/09/09 11:08:16;;;;;;;4.90;3.03;;;;;;;26.97;44.92;97167.22;4912300;29;20625;-78
2022/09/09 11:11:04;;;;;;;6.63;3.57;;;;;;;27.30;44.61;97181.25;4912335;29;20183;-74
2022/09/09 11:13:39;;;;;;;5.90;3.77;;;;;;;27.23;44.42;97175.78;4883560;29;20219;-74
2022/09/09 11:16:35;;;;;;;5.97;3.47;;;;;;;26.78;45.68;97169.38;4912193;29;20733;-76
2022/09/09 11:19:35;;;;;;;7.57;4.00;;;;;;;26.50;46.34;97158.25;4893717;29;20256;-77
2022/09/09 11:22:16;;;;;;;4.53;3.50;;;;;;;26.74;46.68;97155.59;4895120;29;20199;-75
2022/09/09 11:24:50;;;;;;;5.43;3.90;;;;;;;27.18;45.34;97162.16;4912294;29;20278;-77
2022/09/09 11:27:32;;;;;;;4.70;3.90;;;;;;;26.81;45.09;97164.53;4912546;29;20195;-75
2022/09/09 11:30:05;;;;;;;7.03;3.67;;;;;;;26.76;45.91;97142.97;4912555;29;20317;-75
2022/09/09 11:32:50;;;;;;;4.33;3.57;;;;;;;27.07;44.82;97140.44;4912100;29;20556;-76
2022/09/09 11:35:39;;;;;;;4.80;3.80;;;;;;;27.34;44.48;97143.56;4912053;29;20717;-76
2022/09/09 11:38:26;;;;;;;9.20;4.50;;;;;;;27.61;44.25;97147.59;4912030;29;20202;-77
2022/09/09 11:41:06;;;;;;;3.57;3.27;;;;;;;27.43;44.06;97127.56;4912065;29;20223;-75
2022/09/09 11:43:41;;;;;;;7.57;3.87;;;;;;;27.50;44.25;97128.50;4894766;29;20190;-77
2022/09/09 11:46:10;;;;;;;5.33;3.67;;;;;;;27.30;44.39;97144.88;4911980;29;20202;-76
2022/09/09 11:48:43;;;;;;;4.33;3.20;;;;;;;26.95;44.82;97129.34;4912144;29;20222;-75
2022/09/09 11:51:27;;;;;;;5.53;3.77;;;;;;;27.44;43.97;97121.22;4911944;29;20679;-78
2022/09/09 11:54:01;;;;;;;5.17;3.60;;;;;;;27.75;43.62;97122.06;4911467;29;20250;-75
2022/09/09 11:56:28;;;;;;;8.17;3.83;;;;;;;27.71;43.19;97118.94;4911639;29;20207;-75
2022/09/09 11:59:05;;;;;;;3.53;3.23;;;;;;;27.78;43.50;97105.75;4911410;29;20619;-79
2022/09/09 12:01:38;;;;;;;7.93;5.37;;;;;;;27.83;43.42;97109.56;4894792;29;20297;-76
2022/09/09 12:04:09;;;;;;;5.87;3.60;;;;;;;27.91;42.69;97114.81;4911202;29;20749;-75
2022/09/09 12:06:45;;;;;;;4.57;3.40;;;;;;;27.60;43.58;97110.50;4911015;29;20222;-75
2022/09/09 12:09:18;;;;;;;4.23;3.23;;;;;;;27.50;43.85;97115.19;4911361;29;20190;-76